Time;durP1;ratioP1;P1;durP2;ratioP2;P2;SDS_P1;SDS_P2;PMS_P1;PMS_P2;Temp;Humidity;BMP_temperature;BMP_pressure;BME280_temperature;BME280_humidity;BME280_pressure;Samples;Min_cycle;Max_cycle;Signal;HPM_P1;HPM_P2
2022/03/13 00:00:41;;;;;;;15.35;9.40;;;;;;;4.78;49.76;99076.91;5007078;28;20019;-74
2022/03/13 00:03:13;;;;;;;16.55;10.30;;;;;;;4.79;49.76;99068.78;5008396;28;20021;-74
2022/03/13 00:05:41;;;;;;;17.00;10.10;;;;;;;4.78;49.72;99079.56;5007671;28;20038;-74
2022/03/13 00:08:16;;;;;;;16.73;10.63;;;;;;;4.73;49.92;99077.53;5006269;28;20032;-74
2022/03/13 00:10:44;;;;;;;15.05;10.10;;;;;;;4.71;49.78;99076.09;5006082;28;20030;-74
2022/03/13 00:13:16;;;;;;;15.13;9.38;;;;;;;4.67;49.63;99074.88;5007615;28;20091;-73
2022/03/13 00:15:43;;;;;;;18.13;10.55;;;;;;;4.64;49.80;99067.34;5005872;28;20022;-72
2022/03/13 00:18:11;;;;;;;12.73;9.52;;;;;;;4.63;49.76;99069.19;5009366;28;20030;-73
2022/03/13 00:20:38;;;;;;;14.60;8.98;;;;;;;4.60;49.83;99066.16;5008925;28;20033;-73
2022/03/13 00:23:05;;;;;;;16.25;9.90;;;;;;;4.57;49.88;99067.38;5008071;28;20116;-72
2022/03/13 00:25:30;;;;;;;16.50;9.85;;;;;;;4.57;49.83;99070.00;5009847;28;20030;-72
2022/03/13 00:27:56;;;;;;;13.48;9.95;;;;;;;4.53;49.67;99066.97;5006373;28;20032;-73
2022/03/13 00:30:22;;;;;;;17.70;10.10;;;;;;;4.51;50.10;99065.53;5008516;28;20903;-73
2022/03/13 00:32:48;;;;;;;13.68;9.95;;;;;;;4.41;49.97;99057.22;5009324;28;20021;-76
2022/03/13 00:35:13;;;;;;;14.20;9.70;;;;;;;4.43;49.75;99066.56;5020738;28;20037;-75
2022/03/13 00:37:39;;;;;;;13.80;10.13;;;;;;;4.41;49.94;99059.88;4983229;28;20038;-74
2022/03/13 00:40:05;;;;;;;13.90;9.88;;;;;;;4.39;50.03;99052.13;5006198;28;20040;-74
2022/03/13 00:42:30;;;;;;;14.07;10.02;;;;;;;4.40;50.23;99066.16;5010769;28;20050;-74
2022/03/13 00:44:56;;;;;;;15.98;10.13;;;;;;;4.34;49.81;99061.69;5008103;28;20053;-74
2022/03/13 00:47:21;;;;;;;15.52;10.18;;;;;;;4.29;50.79;99057.00;5007875;28;20034;-75
2022/03/13 00:49:48;;;;;;;16.23;8.73;;;;;;;4.28;50.49;99057.22;5007929;28;20038;-74
2022/03/13 00:52:13;;;;;;;15.95;9.63;;;;;;;4.28;49.90;99063.31;5009626;28;20055;-75
2022/03/13 00:54:39;;;;;;;17.77;10.15;;;;;;;4.24;49.81;99056.81;5010246;28;20504;-74
2022/03/13 00:57:04;;;;;;;12.95;9.35;;;;;;;4.12;49.83;99045.22;5003908;28;20026;-76
2022/03/13 00:59:29;;;;;;;15.93;10.20;;;;;;;4.15;49.79;99050.09;5009176;28;20093;-75
2022/03/13 01:01:55;;;;;;;15.57;10.27;;;;;;;4.13;50.33;99053.97;5006868;28;20465;-75
2022/03/13 01:04:20;;;;;;;16.35;9.80;;;;;;;4.10;50.53;99057.00;5006182;28;20124;-74
2022/03/13 01:06:46;;;;;;;22.95;10.10;;;;;;;4.16;50.15;99066.75;5008001;28;20040;-75
2022/03/13 01:09:12;;;;;;;17.08;9.65;;;;;;;4.10;50.29;99052.53;5005286;28;20464;-74
2022/03/13 01:11:37;;;;;;;15.48;10.30;;;;;;;4.04;50.06;99053.31;5008456;28;20034;-75
2022/03/13 01:14:03;;;;;;;15.77;10.60;;;;;;;4.06;50.24;99059.25;4990644;28;20046;-76
2022/03/13 01:16:40;;;;;;;16.23;10.52;;;;;;;4.07;49.94;99054.75;5009905;28;20088;-76
2022/03/13 01:19:08;;;;;;;16.08;10.23;;;;;;;4.04;50.10;99063.88;5004029;28;20487;-75
2022/03/13 01:21:37;;;;;;;16.48;10.50;;;;;;;4.02;50.14;99051.94;5006526;28;20837;-74
2022/03/13 01:24:18;;;;;;;14.73;9.80;;;;;;;3.99;50.18;99049.69;5007531;28;20556;-74
2022/03/13 01:26:44;;;;;;;15.10;9.23;;;;;;;3.98;50.08;99048.84;5004183;28;20045;-75
2022/03/13 01:29:14;;;;;;;14.60;9.30;;;;;;;3.95;50.28;99049.28;5003520;28;20038;-74
2022/03/13 01:31:44;;;;;;;13.93;9.20;;;;;;;3.89;50.60;99034.22;5007532;28;20029;-73
2022/03/13 01:34:11;;;;;;;13.65;9.30;;;;;;;3.94;49.93;99044.19;5007607;28;20045;-75
2022/03/13 01:36:37;;;;;;;16.02;10.38;;;;;;;3.90;50.44;99029.75;5004978;28;20034;-73
2022/03/13 01:39:04;;;;;;;15.55;10.55;;;;;;;3.89;50.35;99033.41;5004499;28;21075;-75
2022/03/13 01:41:29;;;;;;;15.27;10.05;;;;;;;3.82;50.44;99027.31;5006667;28;20038;-73
2022/03/13 01:43:59;;;;;;;16.52;11.07;;;;;;;3.83;50.00;99029.75;5007100;28;20094;-75
2022/03/13 01:46:25;;;;;;;16.27;9.80;;;;;;;3.84;50.55;99028.75;5006854;28;20049;-75
2022/03/13 01:48:57;;;;;;;14.45;10.27;;;;;;;3.84;50.00;99030.56;5009750;28;20231;-75
2022/03/13 01:51:25;;;;;;;15.07;9.63;;;;;;;3.81;50.12;99018.56;5006509;28;20108;-76
2022/03/13 01:53:53;;;;;;;14.50;9.93;;;;;;;3.80;50.35;99024.84;5006944;28;20109;-75
2022/03/13 01:56:19;;;;;;;15.48;9.60;;;;;;;3.74;50.92;99015.91;5009970;28;20036;-75
2022/03/13 01:58:48;;;;;;;17.52;9.93;;;;;;;3.69;50.87;99018.34;5010878;28;20108;-76
2022/03/13 02:01:13;;;;;;;14.80;9.05;;;;;;;3.68;50.86;99018.56;5009776;28;20029;-76
2022/03/13 02:03:38;;;;;;;14.00;8.88;;;;;;;3.71;50.47;99026.88;5002877;28;20026;-76
2022/03/13 02:06:04;;;;;;;14.25;9.77;;;;;;;3.67;50.90;99023.00;5007478;28;20041;-75
2022/03/13 02:08:30;;;;;;;18.70;10.40;;;;;;;3.69;50.69;99020.19;5005076;28;20392;-75
2022/03/13 02:10:57;;;;;;;19.38;10.77;;;;;;;3.61;50.75;99012.44;5009559;28;20504;-74
2022/03/13 02:13:22;;;;;;;15.20;9.65;;;;;;;3.61;50.38;99009.78;4990039;28;20038;-73
2022/03/13 02:15:48;;;;;;;12.55;9.40;;;;;;;3.63;50.91;99013.06;5006889;28;20040;-73
2022/03/13 02:18:14;;;;;;;17.48;10.13;;;;;;;3.64;50.87;99012.88;5005539;28;20049;-73
2022/03/13 02:20:42;;;;;;;17.27;9.95;;;;;;;3.63;50.48;99008.59;5007771;28;20123;-75
2022/03/13 02:23:18;;;;;;;15.45;10.45;;;;;;;3.60;50.83;99002.91;5009850;28;20030;-74
2022/03/13 02:25:43;;;;;;;14.68;10.15;;;;;;;3.57;50.66;99014.69;4994771;28;20444;-74
2022/03/13 02:28:08;;;;;;;13.75;9.18;;;;;;;3.49;50.73;98996.41;5009610;28;20033;-73
2022/03/13 02:30:34;;;;;;;16.83;10.50;;;;;;;3.57;51.13;99005.94;5010284;28;20112;-75
2022/03/13 02:32:59;;;;;;;14.40;9.82;;;;;;;3.57;51.14;99004.13;5006720;28;20038;-75
2022/03/13 02:35:28;;;;;;;13.43;10.75;;;;;;;3.56;50.76;99001.69;5009269;28;20037;-75
2022/03/13 02:37:54;;;;;;;14.23;8.90;;;;;;;3.53;51.24;98999.44;5007352;28;20033;-75
2022/03/13 02:40:22;;;;;;;14.32;9.15;;;;;;;3.51;51.27;98994.38;5005630;28;20117;-74
2022/03/13 02:42:51;;;;;;;16.35;9.20;;;;;;;3.46;51.02;98998.59;5004485;28;20030;-75
2022/03/13 02:45:27;;;;;;;15.63;9.55;;;;;;;3.38;51.04;98978.50;5016320;28;20037;-74
2022/03/13 02:47:53;;;;;;;14.18;9.68;;;;;;;3.48;50.95;98999.22;5005157;28;20060;-74
2022/03/13 02:50:18;;;;;;;14.05;9.73;;;;;;;3.45;51.07;99002.28;5007448;28;20156;-74
2022/03/13 02:52:43;;;;;;;18.33;10.77;;;;;;;3.46;50.51;98996.78;5008902;28;20034;-75
2022/03/13 02:55:09;;;;;;;16.40;11.00;;;;;;;3.43;50.51;98991.09;5008794;28;20057;-73
2022/03/13 02:57:35;;;;;;;15.77;9.65;;;;;;;3.41;50.63;98990.47;5007566;28;20384;-73
2022/03/13 03:00:00;;;;;;;18.50;9.82;;;;;;;3.44;50.35;98992.72;4992901;28;20030;-73
2022/03/13 03:02:26;;;;;;;14.57;9.63;;;;;;;3.41;50.19;98987.81;5011825;28;20029;-74
2022/03/13 03:04:54;;;;;;;16.83;9.15;;;;;;;3.41;50.21;98993.09;5011468;28;20369;-75
2022/03/13 03:07:20;;;;;;;16.40;10.15;;;;;;;3.34;50.75;98987.03;5010500;28;20069;-74
2022/03/13 03:09:45;;;;;;;15.57;9.63;;;;;;;3.38;50.38;98994.34;5009887;28;20061;-75
2022/03/13 03:12:11;;;;;;;15.40;9.73;;;;;;;3.36;50.43;99000.81;5009154;28;20037;-73
2022/03/13 03:14:36;;;;;;;15.93;10.10;;;;;;;3.36;50.39;98996.38;5011215;28;20025;-74
2022/03/13 03:17:02;;;;;;;16.10;9.70;;;;;;;3.33;50.24;98999.38;5006426;28;20064;-74
2022/03/13 03:19:27;;;;;;;16.35;10.35;;;;;;;3.24;50.32;98992.66;5008374;28;20032;-74
2022/03/13 03:21:53;;;;;;;17.75;10.23;;;;;;;3.30;50.56;98991.84;5010661;28;20021;-75
2022/03/13 03:24:22;;;;;;;12.93;8.77;;;;;;;3.30;50.60;98996.34;5010551;28;20060;-75
2022/03/13 03:26:48;;;;;;;17.48;9.60;;;;;;;3.29;49.93;98984.16;5010173;28;20097;-74
2022/03/13 03:29:14;;;;;;;13.20;9.88;;;;;;;3.24;50.18;98986.56;5009264;28;20038;-74
2022/03/13 03:31:42;;;;;;;12.88;8.43;;;;;;;3.27;50.21;98997.56;5003728;28;20407;-76
2022/03/13 03:34:09;;;;;;;16.75;9.45;;;;;;;3.25;49.62;98991.66;5012496;28;20038;-74
2022/03/13 03:36:42;;;;;;;13.73;9.25;;;;;;;3.17;49.75;98981.25;5009626;28;20492;-74
2022/03/13 03:39:09;;;;;;;12.32;8.68;;;;;;;3.17;50.15;98980.47;5012231;28;20076;-74
2022/03/13 03:41:34;;;;;;;15.77;9.70;;;;;;;3.12;50.40;98975.78;5010044;28;20077;-74
2022/03/13 03:44:00;;;;;;;16.92;10.85;;;;;;;3.14;49.82;98980.84;5007384;28;20406;-74
2022/03/13 03:46:25;;;;;;;15.88;9.98;;;;;;;3.19;49.93;98986.38;5011251;28;20490;-75
2022/03/13 03:48:50;;;;;;;16.23;9.32;;;;;;;3.18;49.94;98992.63;5006731;28;20041;-75
2022/03/13 03:51:16;;;;;;;15.73;9.63;;;;;;;3.14;49.15;98992.22;4994819;28;20081;-75
2022/03/13 03:53:42;;;;;;;13.07;9.15;;;;;;;3.15;49.53;98993.84;5012580;28;20033;-75
2022/03/13 03:56:07;;;;;;;16.45;9.32;;;;;;;3.12;50.07;98990.78;5023702;28;20030;-76
2022/03/13 03:58:32;;;;;;;13.70;8.45;;;;;;;3.08;50.04;98986.94;5022210;28;20030;-75
2022/03/13 04:00:58;;;;;;;12.52;9.13;;;;;;;3.10;49.89;98991.00;5008946;28;20392;-75
2022/03/13 04:03:23;;;;;;;17.15;9.45;;;;;;;3.10;49.83;98988.38;5010362;28;20488;-73
2022/03/13 04:05:48;;;;;;;15.55;9.25;;;;;;;3.11;49.92;98995.25;5008414;28;20034;-73
2022/03/13 04:08:15;;;;;;;13.90;9.57;;;;;;;3.08;49.77;98986.94;5012796;28;20125;-74
2022/03/13 04:10:40;;;;;;;17.13;9.90;;;;;;;3.02;50.47;98981.41;5010016;28;20032;-75
2022/03/13 04:13:06;;;;;;;13.75;9.10;;;;;;;3.01;50.14;98992.97;5011635;28;20376;-76
2022/03/13 04:15:31;;;;;;;13.45;8.88;;;;;;;3.00;49.88;98985.25;5010430;28;20421;-74
2022/03/13 04:17:56;;;;;;;19.23;9.25;;;;;;;2.98;50.02;98992.56;4994728;28;20097;-74
2022/03/13 04:20:23;;;;;;;21.38;9.48;;;;;;;3.01;50.08;98992.97;5012562;28;20125;-75
2022/03/13 04:22:48;;;;;;;18.02;9.73;;;;;;;2.99;49.80;98997.63;5007162;28;20057;-74
2022/03/13 04:25:13;;;;;;;17.67;9.50;;;;;;;2.96;50.30;98997.22;5012775;28;20058;-75
2022/03/13 04:27:39;;;;;;;13.45;8.52;;;;;;;2.96;49.92;98998.03;5007736;28;20456;-74
2022/03/13 04:30:05;;;;;;;13.10;8.90;;;;;;;2.97;50.55;98996.22;5004145;28;20026;-76
2022/03/13 04:32:31;;;;;;;14.13;9.57;;;;;;;2.99;50.14;98994.97;5008718;28;20073;-75
2022/03/13 04:34:56;;;;;;;14.43;8.75;;;;;;;2.95;50.36;98987.66;5009148;28;20109;-74
2022/03/13 04:37:22;;;;;;;13.68;9.90;;;;;;;2.89;50.85;98980.53;5008184;28;20033;-73
2022/03/13 04:39:50;;;;;;;18.27;9.45;;;;;;;2.92;50.72;98985.44;4994429;28;20025;-74
2022/03/13 04:42:15;;;;;;;14.10;9.23;;;;;;;2.90;50.14;98976.91;5007746;28;20390;-73
2022/03/13 04:44:41;;;;;;;16.13;9.02;;;;;;;2.88;50.73;98971.03;5003043;28;20026;-75
2022/03/13 04:47:06;;;;;;;15.65;9.82;;;;;;;2.88;50.09;98974.47;5009695;28;20034;-75
2022/03/13 04:49:31;;;;;;;15.98;9.23;;;;;;;2.92;50.13;98985.44;5009259;28;20029;-74
2022/03/13 04:51:57;;;;;;;14.98;9.50;;;;;;;2.87;51.01;98980.75;5008133;28;20046;-74
2022/03/13 04:54:22;;;;;;;17.60;9.68;;;;;;;2.91;50.63;98987.25;5004815;28;20030;-75
2022/03/13 04:56:48;;;;;;;16.20;9.15;;;;;;;2.89;50.57;98981.38;5007844;28;20150;-74
2022/03/13 04:59:13;;;;;;;15.25;9.23;;;;;;;2.85;50.54;98980.13;5009351;28;20108;-74
2022/03/13 05:01:39;;;;;;;11.10;8.52;;;;;;;2.89;50.90;98991.09;5010353;28;20045;-74
2022/03/13 05:04:05;;;;;;;12.80;8.43;;;;;;;2.88;50.89;98979.72;5006407;28;20037;-75
2022/03/13 05:06:31;;;;;;;13.48;8.45;;;;;;;2.81;50.56;98978.09;5011433;28;20029;-75
2022/03/13 05:08:56;;;;;;;13.05;8.40;;;;;;;2.86;50.79;98983.59;5011950;28;20032;-75
2022/03/13 05:11:21;;;;;;;16.95;10.60;;;;;;;2.82;50.98;98979.69;5011688;28;20133;-74
2022/03/13 05:13:47;;;;;;;17.33;9.52;;;;;;;2.77;50.57;98975.03;5009747;28;20025;-74
2022/03/13 05:16:12;;;;;;;14.85;9.18;;;;;;;2.81;50.96;98986.81;5008020;28;20060;-74
2022/03/13 05:18:37;;;;;;;14.02;8.52;;;;;;;2.85;51.21;98990.69;5005029;28;20088;-75
2022/03/13 05:21:03;;;;;;;14.23;9.02;;;;;;;2.85;51.01;98997.75;5009006;28;20025;-74
2022/03/13 05:23:28;;;;;;;12.32;8.77;;;;;;;2.78;50.53;98992.47;5015532;28;20036;-74
2022/03/13 05:25:53;;;;;;;13.98;9.82;;;;;;;2.81;51.16;99007.06;5009573;28;20042;-74
2022/03/13 05:28:19;;;;;;;16.63;9.77;;;;;;;2.78;51.24;99005.63;5006024;28;20037;-74
2022/03/13 05:30:46;;;;;;;12.23;8.82;;;;;;;2.79;50.84;99004.66;5010057;28;20041;-74
2022/03/13 05:33:11;;;;;;;13.00;9.02;;;;;;;2.79;50.76;99006.47;5007971;28;20034;-73
2022/03/13 05:35:37;;;;;;;11.40;8.25;;;;;;;2.79;51.06;99003.81;5006768;28;20523;-74
2022/03/13 05:38:02;;;;;;;16.60;9.52;;;;;;;2.75;50.83;98995.47;5008519;28;20029;-75
2022/03/13 05:40:28;;;;;;;14.48;9.90;;;;;;;2.67;50.84;98987.75;5005866;28;20810;-74
2022/03/13 05:42:59;;;;;;;15.75;8.48;;;;;;;2.72;51.47;98995.88;5006450;28;20026;-74
2022/03/13 05:45:28;;;;;;;15.27;9.73;;;;;;;2.74;51.25;99004.41;5005449;28;20057;-73
2022/03/13 05:47:57;;;;;;;11.45;8.32;;;;;;;2.70;50.68;99000.53;5001853;28;20084;-72
2022/03/13 05:50:25;;;;;;;14.02;8.73;;;;;;;2.72;50.92;99003.78;5009189;28;20030;-74
2022/03/13 05:52:54;;;;;;;11.95;8.63;;;;;;;2.71;50.60;99004.78;5007323;28;20030;-74
2022/03/13 05:55:20;;;;;;;12.38;8.10;;;;;;;2.69;51.76;99009.44;5005253;28;20041;-73
2022/03/13 05:57:46;;;;;;;13.70;8.10;;;;;;;2.61;51.23;98995.59;5006177;28;20038;-73
2022/03/13 06:00:14;;;;;;;15.07;8.82;;;;;;;2.60;50.65;98988.72;5004992;28;20033;-74
2022/03/13 06:02:40;;;;;;;11.85;8.75;;;;;;;2.67;51.56;99005.38;5006291;28;20022;-75
2022/03/13 06:05:08;;;;;;;13.63;8.82;;;;;;;2.65;51.39;99002.94;5005310;28;20083;-74
2022/03/13 06:07:34;;;;;;;13.90;8.55;;;;;;;2.62;51.26;98998.03;5006502;28;20026;-75
2022/03/13 06:10:03;;;;;;;14.32;9.13;;;;;;;2.63;51.28;98999.69;5006129;28;20049;-74
2022/03/13 06:12:30;;;;;;;16.13;8.98;;;;;;;2.65;51.22;99002.09;5002033;28;20030;-74
2022/03/13 06:14:55;;;;;;;12.93;7.72;;;;;;;2.63;51.21;99004.94;5004650;28;20021;-73
2022/03/13 06:17:20;;;;;;;13.65;8.15;;;;;;;2.64;50.98;99001.31;5001270;28;20033;-72
2022/03/13 06:19:46;;;;;;;15.63;9.27;;;;;;;2.63;51.11;99004.94;5001804;28;20026;-75
2022/03/13 06:22:12;;;;;;;13.73;7.97;;;;;;;2.64;51.23;99011.03;4999928;28;20029;-75
2022/03/13 06:24:38;;;;;;;12.55;7.32;;;;;;;2.57;51.01;99005.72;4999004;28;20172;-75
2022/03/13 06:27:05;;;;;;;12.05;8.80;;;;;;;2.64;51.69;99016.31;5005793;28;20495;-74
2022/03/13 06:29:31;;;;;;;12.38;8.25;;;;;;;2.61;51.33;99008.78;5001430;28;20073;-73
2022/03/13 06:31:57;;;;;;;13.98;7.65;;;;;;;2.64;51.88;99018.94;4999847;28;20036;-72
2022/03/13 06:34:22;;;;;;;11.57;8.18;;;;;;;2.63;51.51;99019.94;5001962;28;20041;-74
2022/03/13 06:36:47;;;;;;;13.95;8.40;;;;;;;2.66;51.14;99022.19;5002094;28;20038;-75
2022/03/13 06:39:13;;;;;;;13.13;8.05;;;;;;;2.65;50.97;99013.47;5002965;28;20034;-74
2022/03/13 06:41:38;;;;;;;14.18;7.80;;;;;;;2.70;51.63;99024.25;5002683;28;20018;-73
2022/03/13 06:44:05;;;;;;;14.50;7.95;;;;;;;2.62;51.14;99011.22;5001836;28;20041;-74
2022/03/13 06:46:32;;;;;;;14.73;7.72;;;;;;;2.70;51.51;99026.06;5005997;28;20042;-74
2022/03/13 06:48:59;;;;;;;14.13;9.18;;;;;;;2.68;51.13;99034.19;4999360;28;20490;-73
2022/03/13 06:51:24;;;;;;;15.07;8.38;;;;;;;2.68;51.06;99026.28;5002663;28;20515;-73
2022/03/13 06:53:49;;;;;;;15.73;8.85;;;;;;;2.72;51.09;99024.88;4999880;28;20079;-73
2022/03/13 06:56:15;;;;;;;12.88;8.63;;;;;;;2.71;51.38;99028.50;5004346;28;20045;-75
2022/03/13 06:58:40;;;;;;;17.23;8.43;;;;;;;2.70;51.88;99026.88;5004624;28;20056;-75
2022/03/13 07:01:06;;;;;;;17.58;8.70;;;;;;;2.75;51.42;99035.00;4999690;28;20856;-75
2022/03/13 07:03:32;;;;;;;25.65;11.73;;;;;;;2.76;51.37;99039.28;5001945;28;20177;-73
2022/03/13 07:05:58;;;;;;;11.65;8.07;;;;;;;2.73;51.31;99026.47;4985739;28;20087;-75
2022/03/13 07:08:23;;;;;;;12.45;8.55;;;;;;;2.78;51.58;99036.44;5002864;28;20030;-75
2022/03/13 07:10:50;;;;;;;13.55;8.68;;;;;;;2.81;51.67;99043.97;5002145;28;20408;-76
2022/03/13 07:13:16;;;;;;;16.58;8.90;;;;;;;2.85;51.65;99043.41;4999185;28;20034;-72
2022/03/13 07:15:41;;;;;;;12.75;7.72;;;;;;;2.81;51.51;99030.78;5003115;28;20589;-73
2022/03/13 07:18:06;;;;;;;11.98;8.77;;;;;;;2.87;51.57;99035.28;4986639;28;20061;-74
2022/03/13 07:20:32;;;;;;;14.82;8.73;;;;;;;2.89;52.00;99036.72;5003862;28;20045;-74
2022/03/13 07:22:57;;;;;;;17.85;7.60;;;;;;;2.90;52.01;99035.72;4998470;28;20030;-75
2022/03/13 07:25:22;;;;;;;10.70;7.68;;;;;;;2.92;52.01;99030.25;4999080;28;20515;-75
2022/03/13 07:27:48;;;;;;;13.00;8.23;;;;;;;2.97;51.70;99038.41;5008708;22;20125;-79
2022/03/13 07:30:14;;;;;;;14.15;8.13;;;;;;;3.01;51.33;99040.41;5005464;28;20129;-79
2022/03/13 07:32:43;;;;;;;14.85;8.63;;;;;;;3.03;51.71;99033.16;5007681;28;20029;-79
2022/03/13 07:35:09;;;;;;;11.35;7.40;;;;;;;3.08;51.88;99037.03;4987939;28;20049;-79
2022/03/13 07:37:34;;;;;;;13.63;7.80;;;;;;;3.08;51.54;99040.44;5006557;28;20087;-79
2022/03/13 07:40:01;;;;;;;13.10;8.25;;;;;;;3.09;51.64;99030.72;4997040;28;20038;-79
2022/03/13 07:42:26;;;;;;;12.82;8.43;;;;;;;3.08;51.71;99026.47;5007167;28;20053;-79
2022/03/13 07:44:52;;;;;;;13.05;8.13;;;;;;;3.14;51.52;99025.69;5004728;28;20052;-79
2022/03/13 07:47:18;;;;;;;12.00;8.00;;;;;;;3.23;51.28;99035.88;5008373;28;20398;-79
2022/03/13 07:49:43;;;;;;;14.25;7.88;;;;;;;3.22;52.02;99028.16;5008666;28;20068;-79
2022/03/13 07:52:09;;;;;;;11.75;8.00;;;;;;;3.30;51.46;99038.53;5008496;28;20026;-79
2022/03/13 07:54:34;;;;;;;13.63;7.95;;;;;;;3.33;51.46;99046.03;5008162;28;20091;-79
2022/03/13 07:57:01;;;;;;;12.63;7.38;;;;;;;3.30;51.64;99039.34;5008041;28;20033;-80
2022/03/13 07:59:26;;;;;;;11.70;7.78;;;;;;;3.37;51.02;99039.34;5009867;28;20512;-79
2022/03/13 08:01:52;;;;;;;14.70;8.38;;;;;;;3.42;51.36;99044.88;5009756;28;20030;-79
2022/03/13 08:04:17;;;;;;;10.55;7.50;;;;;;;3.37;51.33;99032.25;5026435;28;20095;-79
2022/03/13 08:06:43;;;;;;;15.32;8.60;;;;;;;3.42;51.93;99031.69;5010027;28;20425;-79
2022/03/13 08:09:08;;;;;;;14.13;8.18;;;;;;;3.40;51.30;99029.25;5008330;28;20057;-79
2022/03/13 08:11:35;;;;;;;11.85;8.10;;;;;;;3.47;51.52;99027.41;5001979;28;20083;-80
2022/03/13 08:14:07;;;;;;;13.63;8.57;;;;;;;3.49;51.37;99033.34;5021938;28;20405;-79
2022/03/13 08:16:33;;;;;;;14.38;8.35;;;;;;;3.51;50.88;99033.13;5017729;28;20112;-79
2022/03/13 08:18:59;;;;;;;12.68;8.50;;;;;;;3.59;51.33;99036.41;5006751;28;20432;-78
2022/03/13 08:21:24;;;;;;;11.90;7.80;;;;;;;3.50;50.89;99015.66;5008365;28;20018;-78
2022/03/13 08:23:50;;;;;;;13.38;7.70;;;;;;;3.65;51.17;99047.97;5023615;28;20046;-78
2022/03/13 08:26:15;;;;;;;13.43;8.48;;;;;;;3.67;51.21;99038.84;5005726;28;20129;-78
2022/03/13 08:28:41;;;;;;;10.20;7.65;;;;;;;3.75;51.16;99043.97;5010065;28;20596;-78
2022/03/13 08:31:07;;;;;;;11.32;8.63;;;;;;;3.75;51.48;99043.97;5009610;28;20117;-78
2022/03/13 08:33:32;;;;;;;14.00;8.77;;;;;;;3.76;51.16;99050.03;5006402;28;20371;-80
2022/03/13 08:35:58;;;;;;;10.98;7.97;;;;;;;3.81;50.81;99039.69;5007034;28;20029;-78
2022/03/13 08:38:23;;;;;;;11.18;7.90;;;;;;;3.84;51.13;99038.47;5005589;28;20037;-78
2022/03/13 08:40:48;;;;;;;12.73;8.13;;;;;;;3.94;51.17;99041.53;5006247;28;20034;-78
2022/03/13 08:43:14;;;;;;;10.13;7.38;;;;;;;3.95;51.21;99044.00;5004148;28;20033;-78
2022/03/13 08:45:39;;;;;;;12.88;7.57;;;;;;;3.96;51.49;99036.88;5005818;28;20049;-77
2022/03/13 08:48:05;;;;;;;12.38;8.65;;;;;;;4.00;51.34;99036.25;5007574;28;20025;-78
2022/03/13 08:50:32;;;;;;;12.75;7.97;;;;;;;4.06;51.36;99034.66;5007824;28;20392;-78
2022/03/13 08:52:58;;;;;;;13.25;7.38;;;;;;;4.09;50.97;99032.41;5006972;28;20065;-78
2022/03/13 08:55:24;;;;;;;12.55;8.00;;;;;;;4.06;51.68;99024.91;5006367;28;20042;-78
2022/03/13 08:57:49;;;;;;;14.13;8.98;;;;;;;4.16;51.26;99029.78;5003878;28;20026;-78
2022/03/13 09:00:16;;;;;;;12.82;7.80;;;;;;;4.13;50.85;99015.13;5006885;28;20080;-78
2022/03/13 09:02:43;;;;;;;14.57;8.18;;;;;;;4.17;51.29;99021.63;5002612;28;20116;-78
2022/03/13 09:05:09;;;;;;;13.82;8.32;;;;;;;4.19;51.65;99014.34;5020114;28;20022;-78
2022/03/13 09:07:35;;;;;;;14.65;9.15;;;;;;;4.30;51.16;99021.63;5009888;28;20490;-78
2022/03/13 09:10:07;;;;;;;14.90;9.05;;;;;;;4.33;51.14;99023.06;5011216;28;20394;-78
2022/03/13 09:12:33;;;;;;;11.95;7.53;;;;;;;4.36;50.95;99020.03;4989476;28;21460;-78
2022/03/13 09:14:59;;;;;;;11.73;8.63;;;;;;;4.37;50.67;99011.88;5023549;28;20429;-78
2022/03/13 09:17:24;;;;;;;14.68;8.45;;;;;;;4.39;50.54;99011.69;4986404;28;20037;-78
2022/03/13 09:19:50;;;;;;;10.88;8.05;;;;;;;4.43;51.00;99010.28;5008286;28;20115;-78
2022/03/13 09:22:17;;;;;;;11.45;7.85;;;;;;;4.50;50.71;99019.78;5022089;28;20044;-78
2022/03/13 09:24:44;;;;;;;15.23;9.30;;;;;;;4.56;50.50;99015.53;5004997;28;20030;-78
2022/03/13 09:27:09;;;;;;;15.52;8.55;;;;;;;4.62;50.28;99024.47;5011825;28;20251;-78
2022/03/13 09:29:35;;;;;;;12.90;8.73;;;;;;;4.64;50.10;99012.66;5015960;28;20109;-78
2022/03/13 09:32:00;;;;;;;11.82;7.60;;;;;;;4.69;50.21;99014.69;5016007;28;20116;-78
2022/03/13 09:34:26;;;;;;;13.93;8.80;;;;;;;4.73;50.44;99006.16;5011357;28;20045;-77
2022/03/13 09:36:52;;;;;;;15.18;8.13;;;;;;;4.79;48.90;99009.78;5021766;28;20089;-77
2022/03/13 09:39:17;;;;;;;14.85;8.10;;;;;;;4.83;49.79;99010.97;5001098;28;20562;-78
2022/03/13 09:41:43;;;;;;;11.57;8.48;;;;;;;4.86;49.11;99000.00;5024061;28;20025;-78
2022/03/13 09:44:08;;;;;;;11.95;7.15;;;;;;;4.91;49.48;99005.50;5018135;28;20040;-77
2022/03/13 09:46:36;;;;;;;11.13;8.23;;;;;;;4.99;50.03;99008.72;5015447;28;20100;-77
2022/03/13 09:49:02;;;;;;;16.10;9.63;;;;;;;5.05;50.34;99004.41;5016297;28;20482;-78
2022/03/13 09:51:27;;;;;;;12.43;8.27;;;;;;;5.08;50.25;99004.81;5025218;28;20060;-77
2022/03/13 09:53:52;;;;;;;12.48;8.18;;;;;;;5.11;50.27;99001.75;5023896;28;20033;-78
2022/03/13 09:56:17;;;;;;;15.20;8.65;;;;;;;5.15;50.08;98996.84;4993181;28;20058;-78
2022/03/13 09:58:44;;;;;;;12.77;7.82;;;;;;;5.29;50.08;99003.69;4981941;28;20030;-78
2022/03/13 10:01:09;;;;;;;13.68;8.32;;;;;;;5.35;50.13;99005.53;5014080;28;20029;-78
2022/03/13 10:03:35;;;;;;;15.27;8.25;;;;;;;5.41;47.18;98994.09;5008637;28;20038;-77
2022/03/13 10:06:00;;;;;;;17.25;7.93;;;;;;;5.52;47.77;98995.25;5013140;28;20084;-77
2022/03/13 10:08:31;;;;;;;12.10;7.72;;;;;;;5.68;48.15;98984.16;5013157;28;20040;-77
2022/03/13 10:10:58;;;;;;;12.00;7.60;;;;;;;5.76;48.40;98976.78;5031875;28;20037;-77
2022/03/13 10:13:40;;;;;;;22.45;8.13;;;;;;;5.80;47.23;98971.84;5013019;28;20069;-77
2022/03/13 10:16:08;;;;;;;13.52;7.63;;;;;;;5.93;47.27;98974.44;5007132;28;20053;-77
2022/03/13 10:18:34;;;;;;;13.70;8.60;;;;;;;6.01;47.03;98972.31;5013858;28;20026;-77
2022/03/13 10:21:11;;;;;;;12.27;8.32;;;;;;;6.07;46.96;98972.50;5010468;28;20030;-77
2022/03/13 10:23:36;;;;;;;13.00;8.27;;;;;;;6.13;47.22;98967.16;5015260;28;20033;-77
2022/03/13 10:26:04;;;;;;;11.93;7.50;;;;;;;6.24;47.58;98960.31;5013449;28;20030;-77
2022/03/13 10:28:32;;;;;;;18.33;8.38;;;;;;;6.35;47.10;98967.56;5011051;28;20034;-78
2022/03/13 10:30:57;;;;;;;12.30;8.45;;;;;;;6.41;47.33;98964.84;5008830;28;20034;-77
2022/03/13 10:33:23;;;;;;;12.20;7.60;;;;;;;6.51;46.39;98965.16;5012323;28;20034;-77
2022/03/13 10:35:48;;;;;;;14.15;7.93;;;;;;;6.58;45.91;98954.47;5008424;28;20694;-77
2022/03/13 10:38:23;;;;;;;10.27;7.47;;;;;;;6.66;45.64;98951.56;5011272;28;20228;-77
2022/03/13 10:40:56;;;;;;;13.48;8.18;;;;;;;6.72;45.59;98956.78;5010715;28;20485;-77
2022/03/13 10:43:26;;;;;;;11.02;7.35;;;;;;;6.70;45.60;98953.53;5012244;28;20111;-77
2022/03/13 10:45:53;;;;;;;11.60;6.32;;;;;;;6.74;45.71;98957.38;5015340;28;20068;-77
2022/03/13 10:48:29;;;;;;;9.27;7.63;;;;;;;6.81;45.64;98962.59;5007977;28;20030;-77
2022/03/13 10:51:00;;;;;;;12.98;7.57;;;;;;;6.87;45.50;98960.88;5025071;28;20062;-77
2022/03/13 10:53:27;;;;;;;9.40;7.07;;;;;;;6.81;44.98;98936.84;5008792;28;20441;-77
2022/03/13 10:56:20;;;;;;;9.23;7.65;;;;;;;6.91;45.33;98948.78;5005563;28;20110;-77
2022/03/13 10:58:46;;;;;;;12.05;8.07;;;;;;;6.90;45.56;98941.88;4989258;28;20042;-77
2022/03/13 11:01:19;;;;;;;12.27;7.88;;;;;;;7.00;45.60;98942.97;4993342;28;20500;-77
2022/03/13 11:03:49;;;;;;;14.13;8.35;;;;;;;7.14;43.41;98946.28;5008860;28;20172;-78
2022/03/13 11:06:14;;;;;;;10.88;7.53;;;;;;;7.16;44.62;98939.72;5024808;28;20029;-78
2022/03/13 11:08:41;;;;;;;11.88;7.35;;;;;;;7.18;44.76;98929.69;5004438;28;20060;-78
2022/03/13 11:11:07;;;;;;;13.52;8.18;;;;;;;7.28;45.42;98934.44;5025034;28;20066;-78
2022/03/13 11:13:35;;;;;;;11.77;7.80;;;;;;;7.25;45.55;98926.94;5007975;28;20052;-77
2022/03/13 11:16:03;;;;;;;10.35;7.45;;;;;;;7.27;45.93;98933.63;5016594;28;20029;-78
2022/03/13 11:18:32;;;;;;;11.40;7.68;;;;;;;7.26;46.43;98920.59;5003988;28;20046;-78
2022/03/13 11:20:59;;;;;;;11.43;7.50;;;;;;;7.34;46.09;98926.38;5021858;28;20125;-78
2022/03/13 11:23:25;;;;;;;19.55;8.27;;;;;;;7.34;46.51;98923.72;5029993;28;20133;-78
2022/03/13 11:25:55;;;;;;;11.40;7.65;;;;;;;7.40;46.21;98919.38;5011133;28;20037;-78
2022/03/13 11:28:22;;;;;;;9.40;7.40;;;;;;;7.44;46.33;98912.56;5013682;28;20025;-78